createdAt,value
2023-01-08T18:20:15.419Z,8.45
2023-01-08T18:25:21.057Z,9.72
2023-01-08T18:30:26.996Z,10.06
2023-01-08T18:35:35.519Z,10.27
2023-01-08T18:40:40.664Z,10.40
2023-01-08T18:45:45.795Z,10.51
2023-01-08T18:50:53.505Z,10.63
2023-01-08T18:56:01.320Z,10.71
2023-01-08T19:01:07.296Z,10.83
2023-01-08T19:06:18.061Z,11.01
2023-01-08T19:11:23.390Z,11.18
2023-01-08T19:16:28.736Z,11.33
2023-01-08T19:21:36.663Z,11.32
2023-01-08T19:26:41.869Z,11.26
2023-01-08T19:31:47.197Z,11.28
2023-01-08T19:36:54.926Z,11.37
2023-01-08T19:42:12.772Z,11.43
2023-01-08T19:47:18.050Z,11.38
2023-01-08T19:52:25.862Z,11.36
2023-01-08T19:57:31.090Z,11.26
2023-01-08T20:02:36.324Z,11.17
2023-01-08T20:07:44.246Z,11.10
2023-01-08T20:12:49.511Z,11.02
2023-01-08T20:17:54.555Z,10.98
2023-01-08T20:23:02.362Z,10.99
2023-01-08T20:28:07.807Z,11.01
2023-01-08T20:33:14.189Z,11.04
2023-01-08T20:38:24.358Z,11.09
2023-01-08T20:43:29.663Z,11.14
2023-01-08T20:48:42.974Z,11.23
2023-01-08T20:53:54.867Z,11.37
2023-01-08T20:59:00.251Z,11.50
2023-01-08T21:04:06.639Z,11.64
2023-01-08T21:09:16.650Z,11.76
2023-01-08T21:14:21.783Z,11.84
2023-01-08T21:19:27.048Z,11.90
2023-01-08T21:24:35.232Z,11.98
2023-01-08T21:29:40.335Z,12.06
2023-01-08T21:34:45.910Z,12.12
2023-01-08T21:39:53.859Z,12.18
2023-01-08T21:45:23.483Z,12.25
